sensor_id;sensor_type;location;lat;lon;timestamp;P1;durP1;ratioP1;P2;durP2;ratioP2
13801;SDS011;6972;51.518;6.918;2023-08-30T00:01:14;9.43;;;6.28;;
13801;SDS011;6972;51.518;6.918;2023-08-30T00:03:40;10.13;;;5.80;;
13801;SDS011;6972;51.518;6.918;2023-08-30T00:06:07;10.30;;;5.85;;
13801;SDS011;6972;51.518;6.918;2023-08-30T00:08:34;9.23;;;6.10;;
13801;SDS011;6972;51.518;6.918;2023-08-30T00:11:00;9.30;;;6.47;;
13801;SDS011;6972;51.518;6.918;2023-08-30T00:13:29;7.97;;;6.15;;
13801;SDS011;6972;51.518;6.918;2023-08-30T00:15:55;8.07;;;6.13;;
13801;SDS011;6972;51.518;6.918;2023-08-30T00:18:21;11.15;;;6.55;;
13801;SDS011;6972;51.518;6.918;2023-08-30T00:20:48;7.95;;;5.90;;
13801;SDS011;6972;51.518;6.918;2023-08-30T00:23:14;10.13;;;6.47;;
13801;SDS011;6972;51.518;6.918;2023-08-30T00:25:41;7.95;;;5.57;;
13801;SDS011;6972;51.518;6.918;2023-08-30T00:28:07;7.93;;;5.95;;
13801;SDS011;6972;51.518;6.918;2023-08-30T00:30:33;8.85;;;6.07;;
13801;SDS011;6972;51.518;6.918;2023-08-30T00:33:00;9.75;;;6.18;;
13801;SDS011;6972;51.518;6.918;2023-08-30T00:35:26;9.25;;;6.40;;
13801;SDS011;6972;51.518;6.918;2023-08-30T00:37:52;7.82;;;6.88;;
13801;SDS011;6972;51.518;6.918;2023-08-30T00:40:18;9.40;;;6.38;;
13801;SDS011;6972;51.518;6.918;2023-08-30T00:42:48;10.38;;;5.80;;
13801;SDS011;6972;51.518;6.918;2023-08-30T00:45:14;9.73;;;6.32;;
13801;SDS011;6972;51.518;6.918;2023-08-30T00:47:40;12.98;;;6.30;;
13801;SDS011;6972;51.518;6.918;2023-08-30T00:50:06;7.90;;;6.70;;
13801;SDS011;6972;51.518;6.918;2023-08-30T00:52:32;8.13;;;6.43;;
13801;SDS011;6972;51.518;6.918;2023-08-30T00:54:58;10.52;;;7.28;;
13801;SDS011;6972;51.518;6.918;2023-08-30T00:57:25;10.50;;;6.70;;
13801;SDS011;6972;51.518;6.918;2023-08-30T00:59:51;8.07;;;6.45;;
13801;SDS011;6972;51.518;6.918;2023-08-30T01:02:19;9.55;;;6.40;;
13801;SDS011;6972;51.518;6.918;2023-08-30T01:04:45;10.93;;;7.40;;
13801;SDS011;6972;51.518;6.918;2023-08-30T01:07:11;9.50;;;6.47;;
13801;SDS011;6972;51.518;6.918;2023-08-30T01:09:37;9.40;;;6.50;;
13801;SDS011;6972;51.518;6.918;2023-08-30T01:12:10;12.20;;;6.95;;
13801;SDS011;6972;51.518;6.918;2023-08-30T01:14:40;9.48;;;6.85;;
13801;SDS011;6972;51.518;6.918;2023-08-30T01:17:09;9.43;;;6.90;;
13801;SDS011;6972;51.518;6.918;2023-08-30T01:19:46;8.85;;;6.80;;
13801;SDS011;6972;51.518;6.918;2023-08-30T01:22:16;10.00;;;7.20;;
13801;SDS011;6972;51.518;6.918;2023-08-30T01:27:18;11.18;;;7.40;;
13801;SDS011;6972;51.518;6.918;2023-08-30T01:29:47;12.55;;;7.13;;
13801;SDS011;6972;51.518;6.918;2023-08-30T01:32:15;11.35;;;8.38;;
13801;SDS011;6972;51.518;6.918;2023-08-30T01:34:41;10.93;;;7.43;;
13801;SDS011;6972;51.518;6.918;2023-08-30T01:37:08;9.93;;;7.90;;
13801;SDS011;6972;51.518;6.918;2023-08-30T01:39:34;9.80;;;8.35;;
13801;SDS011;6972;51.518;6.918;2023-08-30T01:42:02;17.75;;;8.90;;
13801;SDS011;6972;51.518;6.918;2023-08-30T01:44:29;11.73;;;8.45;;
13801;SDS011;6972;51.518;6.918;2023-08-30T01:46:56;13.63;;;9.45;;
13801;SDS011;6972;51.518;6.918;2023-08-30T01:49:25;11.15;;;8.30;;
13801;SDS011;6972;51.518;6.918;2023-08-30T01:51:52;10.68;;;8.27;;
13801;SDS011;6972;51.518;6.918;2023-08-30T01:54:19;12.95;;;9.02;;
13801;SDS011;6972;51.518;6.918;2023-08-30T01:56:46;15.63;;;9.75;;
13801;SDS011;6972;51.518;6.918;2023-08-30T01:59:12;11.30;;;9.43;;
13801;SDS011;6972;51.518;6.918;2023-08-30T02:01:38;11.52;;;9.60;;
13801;SDS011;6972;51.518;6.918;2023-08-30T02:04:04;11.98;;;9.38;;
13801;SDS011;6972;51.518;6.918;2023-08-30T02:09:01;11.82;;;10.13;;
13801;SDS011;6972;51.518;6.918;2023-08-30T02:11:29;21.60;;;10.80;;
13801;SDS011;6972;51.518;6.918;2023-08-30T02:13:57;13.40;;;10.48;;
13801;SDS011;6972;51.518;6.918;2023-08-30T02:16:23;16.10;;;10.90;;
13801;SDS011;6972;51.518;6.918;2023-08-30T02:18:51;13.25;;;10.13;;
13801;SDS011;6972;51.518;6.918;2023-08-30T02:21:18;14.43;;;9.38;;
13801;SDS011;6972;51.518;6.918;2023-08-30T02:23:44;14.50;;;10.48;;
13801;SDS011;6972;51.518;6.918;2023-08-30T02:26:14;13.13;;;10.18;;
13801;SDS011;6972;51.518;6.918;2023-08-30T02:28:40;12.27;;;10.30;;
13801;SDS011;6972;51.518;6.918;2023-08-30T02:31:06;12.35;;;10.75;;
13801;SDS011;6972;51.518;6.918;2023-08-30T02:33:32;16.42;;;11.27;;
13801;SDS011;6972;51.518;6.918;2023-08-30T02:35:59;13.15;;;10.52;;
13801;SDS011;6972;51.518;6.918;2023-08-30T02:38:25;12.77;;;9.35;;
13801;SDS011;6972;51.518;6.918;2023-08-30T02:40:51;16.10;;;10.65;;
13801;SDS011;6972;51.518;6.918;2023-08-30T02:43:17;12.13;;;10.25;;
13801;SDS011;6972;51.518;6.918;2023-08-30T02:45:43;13.55;;;10.82;;
13801;SDS011;6972;51.518;6.918;2023-08-30T02:48:09;14.27;;;10.70;;
13801;SDS011;6972;51.518;6.918;2023-08-30T02:50:35;14.25;;;10.20;;
13801;SDS011;6972;51.518;6.918;2023-08-30T02:53:01;12.65;;;10.20;;
13801;SDS011;6972;51.518;6.918;2023-08-30T02:55:30;13.95;;;11.27;;
13801;SDS011;6972;51.518;6.918;2023-08-30T02:57:56;14.35;;;11.73;;
13801;SDS011;6972;51.518;6.918;2023-08-30T03:00:22;15.85;;;11.07;;
13801;SDS011;6972;51.518;6.918;2023-08-30T03:02:48;14.23;;;10.88;;
13801;SDS011;6972;51.518;6.918;2023-08-30T03:05:14;15.75;;;11.07;;
13801;SDS011;6972;51.518;6.918;2023-08-30T03:07:40;17.85;;;11.05;;
13801;SDS011;6972;51.518;6.918;2023-08-30T03:10:06;17.13;;;10.23;;
13801;SDS011;6972;51.518;6.918;2023-08-30T03:12:32;14.18;;;11.13;;
13801;SDS011;6972;51.518;6.918;2023-08-30T03:14:58;15.32;;;11.13;;
13801;SDS011;6972;51.518;6.918;2023-08-30T03:17:24;12.45;;;10.82;;
13801;SDS011;6972;51.518;6.918;2023-08-30T03:19:53;12.48;;;11.18;;
13801;SDS011;6972;51.518;6.918;2023-08-30T03:22:20;14.20;;;11.75;;
13801;SDS011;6972;51.518;6.918;2023-08-30T03:24:46;12.93;;;10.98;;
13801;SDS011;6972;51.518;6.918;2023-08-30T03:27:12;14.77;;;10.98;;
13801;SDS011;6972;51.518;6.918;2023-08-30T03:29:38;14.88;;;11.40;;
13801;SDS011;6972;51.518;6.918;2023-08-30T03:32:04;16.98;;;11.05;;
13801;SDS011;6972;51.518;6.918;2023-08-30T03:34:30;13.00;;;11.20;;
13801;SDS011;6972;51.518;6.918;2023-08-30T03:36:56;12.60;;;10.25;;
13801;SDS011;6972;51.518;6.918;2023-08-30T03:39:22;14.68;;;11.25;;
13801;SDS011;6972;51.518;6.918;2023-08-30T03:41:49;14.85;;;10.60;;
13801;SDS011;6972;51.518;6.918;2023-08-30T03:44:15;15.50;;;11.00;;
13801;SDS011;6972;51.518;6.918;2023-08-30T03:46:41;14.00;;;11.13;;
13801;SDS011;6972;51.518;6.918;2023-08-30T03:49:07;12.27;;;10.68;;
13801;SDS011;6972;51.518;6.918;2023-08-30T03:51:34;18.42;;;10.90;;
13801;SDS011;6972;51.518;6.918;2023-08-30T03:54:00;12.77;;;10.70;;
13801;SDS011;6972;51.518;6.918;2023-08-30T03:56:26;13.60;;;10.82;;
13801;SDS011;6972;51.518;6.918;2023-08-30T03:58:52;14.18;;;11.02;;
13801;SDS011;6972;51.518;6.918;2023-08-30T04:01:18;12.32;;;10.57;;
13801;SDS011;6972;51.518;6.918;2023-08-30T04:03:44;12.38;;;9.77;;
13801;SDS011;6972;51.518;6.918;2023-08-30T04:06:10;16.77;;;11.43;;
13801;SDS011;6972;51.518;6.918;2023-08-30T04:08:36;13.48;;;10.40;;
13801;SDS011;6972;51.518;6.918;2023-08-30T04:11:02;14.05;;;10.98;;
13801;SDS011;6972;51.518;6.918;2023-08-30T04:13:28;11.75;;;10.25;;
13801;SDS011;6972;51.518;6.918;2023-08-30T04:15:54;14.15;;;10.98;;
13801;SDS011;6972;51.518;6.918;2023-08-30T04:18:23;18.67;;;11.38;;
13801;SDS011;6972;51.518;6.918;2023-08-30T04:20:49;18.05;;;12.05;;
13801;SDS011;6972;51.518;6.918;2023-08-30T04:23:15;12.95;;;10.88;;
13801;SDS011;6972;51.518;6.918;2023-08-30T04:25:41;16.35;;;12.00;;
13801;SDS011;6972;51.518;6.918;2023-08-30T04:28:07;14.90;;;11.10;;
13801;SDS011;6972;51.518;6.918;2023-08-30T04:30:35;14.27;;;11.77;;
13801;SDS011;6972;51.518;6.918;2023-08-30T04:33:01;13.30;;;10.57;;
13801;SDS011;6972;51.518;6.918;2023-08-30T04:35:28;13.35;;;10.77;;
13801;SDS011;6972;51.518;6.918;2023-08-30T04:37:54;15.57;;;11.25;;
13801;SDS011;6972;51.518;6.918;2023-08-30T04:40:20;15.52;;;10.73;;
13801;SDS011;6972;51.518;6.918;2023-08-30T04:42:46;14.15;;;11.95;;
13801;SDS011;6972;51.518;6.918;2023-08-30T04:45:12;12.75;;;11.40;;
13801;SDS011;6972;51.518;6.918;2023-08-30T04:47:38;15.93;;;11.75;;
13801;SDS011;6972;51.518;6.918;2023-08-30T04:50:05;15.73;;;13.30;;
13801;SDS011;6972;51.518;6.918;2023-08-30T04:52:31;16.42;;;12.75;;
13801;SDS011;6972;51.518;6.918;2023-08-30T04:54:58;20.27;;;12.75;;
13801;SDS011;6972;51.518;6.918;2023-08-30T04:57:24;14.10;;;12.60;;
13801;SDS011;6972;51.518;6.918;2023-08-30T04:59:50;15.48;;;11.82;;
13801;SDS011;6972;51.518;6.918;2023-08-30T05:02:16;15.60;;;12.90;;
13801;SDS011;6972;51.518;6.918;2023-08-30T05:04:42;14.85;;;13.20;;
13801;SDS011;6972;51.518;6.918;2023-08-30T05:07:08;16.10;;;12.63;;
13801;SDS011;6972;51.518;6.918;2023-08-30T05:09:34;15.93;;;13.43;;
13801;SDS011;6972;51.518;6.918;2023-08-30T05:12:00;19.45;;;13.30;;
13801;SDS011;6972;51.518;6.918;2023-08-30T05:14:26;16.67;;;13.32;;
13801;SDS011;6972;51.518;6.918;2023-08-30T05:16:53;20.00;;;13.43;;
13801;SDS011;6972;51.518;6.918;2023-08-30T05:19:19;14.70;;;12.85;;
13801;SDS011;6972;51.518;6.918;2023-08-30T05:21:45;19.05;;;13.80;;
13801;SDS011;6972;51.518;6.918;2023-08-30T05:24:11;18.80;;;13.57;;
13801;SDS011;6972;51.518;6.918;2023-08-30T05:26:37;16.13;;;12.95;;
13801;SDS011;6972;51.518;6.918;2023-08-30T05:29:03;19.25;;;15.05;;
13801;SDS011;6972;51.518;6.918;2023-08-30T05:31:29;20.85;;;13.30;;
13801;SDS011;6972;51.518;6.918;2023-08-30T05:33:55;19.88;;;14.13;;
13801;SDS011;6972;51.518;6.918;2023-08-30T05:36:21;16.73;;;13.85;;
13801;SDS011;6972;51.518;6.918;2023-08-30T05:38:47;19.42;;;14.50;;
13801;SDS011;6972;51.518;6.918;2023-08-30T05:41:13;17.45;;;14.68;;
13801;SDS011;6972;51.518;6.918;2023-08-30T05:43:39;17.85;;;14.10;;
13801;SDS011;6972;51.518;6.918;2023-08-30T05:46:05;25.40;;;14.20;;
13801;SDS011;6972;51.518;6.918;2023-08-30T05:48:37;18.40;;;14.00;;
13801;SDS011;6972;51.518;6.918;2023-08-30T05:51:03;19.45;;;14.52;;
13801;SDS011;6972;51.518;6.918;2023-08-30T05:53:29;19.48;;;13.88;;
13801;SDS011;6972;51.518;6.918;2023-08-30T05:55:55;18.50;;;13.57;;
13801;SDS011;6972;51.518;6.918;2023-08-30T05:58:21;20.13;;;15.38;;
13801;SDS011;6972;51.518;6.918;2023-08-30T06:00:47;17.00;;;13.93;;
13801;SDS011;6972;51.518;6.918;2023-08-30T06:03:13;20.00;;;14.48;;
13801;SDS011;6972;51.518;6.918;2023-08-30T06:05:39;17.30;;;14.20;;
13801;SDS011;6972;51.518;6.918;2023-08-30T06:08:05;17.15;;;13.63;;
13801;SDS011;6972;51.518;6.918;2023-08-30T06:10:32;16.73;;;13.65;;
13801;SDS011;6972;51.518;6.918;2023-08-30T06:12:58;17.58;;;13.93;;
13801;SDS011;6972;51.518;6.918;2023-08-30T06:15:25;19.50;;;14.18;;
13801;SDS011;6972;51.518;6.918;2023-08-30T06:17:51;22.20;;;14.00;;
13801;SDS011;6972;51.518;6.918;2023-08-30T06:20:17;17.55;;;13.57;;
13801;SDS011;6972;51.518;6.918;2023-08-30T06:22:43;16.67;;;13.05;;
13801;SDS011;6972;51.518;6.918;2023-08-30T06:25:09;15.82;;;13.13;;
13801;SDS011;6972;51.518;6.918;2023-08-30T06:27:42;16.90;;;12.88;;
13801;SDS011;6972;51.518;6.918;2023-08-30T06:30:09;15.60;;;12.50;;
13801;SDS011;6972;51.518;6.918;2023-08-30T06:32:35;14.15;;;12.23;;
13801;SDS011;6972;51.518;6.918;2023-08-30T06:35:01;18.23;;;13.07;;
13801;SDS011;6972;51.518;6.918;2023-08-30T06:37:28;19.38;;;13.20;;
13801;SDS011;6972;51.518;6.918;2023-08-30T06:39:54;16.13;;;12.38;;
13801;SDS011;6972;51.518;6.918;2023-08-30T06:42:21;18.08;;;13.02;;
13801;SDS011;6972;51.518;6.918;2023-08-30T06:44:47;19.95;;;13.00;;
13801;SDS011;6972;51.518;6.918;2023-08-30T06:47:13;15.20;;;12.35;;
13801;SDS011;6972;51.518;6.918;2023-08-30T06:49:39;18.65;;;12.50;;
13801;SDS011;6972;51.518;6.918;2023-08-30T06:52:05;15.10;;;12.32;;
13801;SDS011;6972;51.518;6.918;2023-08-30T06:54:32;13.63;;;11.80;;
13801;SDS011;6972;51.518;6.918;2023-08-30T06:56:58;15.20;;;11.90;;
13801;SDS011;6972;51.518;6.918;2023-08-30T06:59:25;14.60;;;12.00;;
13801;SDS011;6972;51.518;6.918;2023-08-30T07:01:51;14.57;;;11.43;;
13801;SDS011;6972;51.518;6.918;2023-08-30T07:04:17;13.65;;;10.50;;
13801;SDS011;6972;51.518;6.918;2023-08-30T07:06:44;14.30;;;11.10;;
13801;SDS011;6972;51.518;6.918;2023-08-30T07:09:10;15.55;;;11.85;;
13801;SDS011;6972;51.518;6.918;2023-08-30T07:11:37;12.65;;;10.35;;
13801;SDS011;6972;51.518;6.918;2023-08-30T07:14:03;15.38;;;10.32;;
13801;SDS011;6972;51.518;6.918;2023-08-30T07:16:30;14.25;;;10.32;;
13801;SDS011;6972;51.518;6.918;2023-08-30T07:18:59;11.98;;;9.77;;
13801;SDS011;6972;51.518;6.918;2023-08-30T07:21:26;14.30;;;10.57;;
13801;SDS011;6972;51.518;6.918;2023-08-30T07:23:52;11.07;;;9.40;;
13801;SDS011;6972;51.518;6.918;2023-08-30T07:26:18;13.48;;;10.00;;
13801;SDS011;6972;51.518;6.918;2023-08-30T07:28:45;13.52;;;9.20;;
13801;SDS011;6972;51.518;6.918;2023-08-30T07:31:11;11.82;;;8.75;;
13801;SDS011;6972;51.518;6.918;2023-08-30T07:33:40;13.20;;;8.68;;
13801;SDS011;6972;51.518;6.918;2023-08-30T07:36:07;11.30;;;8.82;;
13801;SDS011;6972;51.518;6.918;2023-08-30T07:38:33;14.80;;;8.35;;
13801;SDS011;6972;51.518;6.918;2023-08-30T07:41:00;12.65;;;8.35;;
13801;SDS011;6972;51.518;6.918;2023-08-30T07:43:26;9.43;;;7.97;;
13801;SDS011;6972;51.518;6.918;2023-08-30T07:45:52;10.38;;;8.50;;
13801;SDS011;6972;51.518;6.918;2023-08-30T07:48:18;10.82;;;7.47;;
13801;SDS011;6972;51.518;6.918;2023-08-30T07:50:47;13.45;;;7.78;;
13801;SDS011;6972;51.518;6.918;2023-08-30T07:53:13;12.75;;;7.88;;
13801;SDS011;6972;51.518;6.918;2023-08-30T07:55:39;9.93;;;6.63;;
13801;SDS011;6972;51.518;6.918;2023-08-30T07:58:05;9.63;;;7.28;;
13801;SDS011;6972;51.518;6.918;2023-08-30T08:00:33;12.65;;;6.70;;
13801;SDS011;6972;51.518;6.918;2023-08-30T08:03:00;10.82;;;6.82;;
13801;SDS011;6972;51.518;6.918;2023-08-30T08:05:26;7.80;;;6.53;;
13801;SDS011;6972;51.518;6.918;2023-08-30T08:07:52;9.65;;;6.35;;
13801;SDS011;6972;51.518;6.918;2023-08-30T08:10:19;8.82;;;6.25;;
13801;SDS011;6972;51.518;6.918;2023-08-30T08:12:45;8.65;;;5.47;;
13801;SDS011;6972;51.518;6.918;2023-08-30T08:15:11;9.45;;;5.93;;
13801;SDS011;6972;51.518;6.918;2023-08-30T08:17:37;6.72;;;5.15;;
13801;SDS011;6972;51.518;6.918;2023-08-30T08:20:04;9.48;;;4.85;;
13801;SDS011;6972;51.518;6.918;2023-08-30T08:22:30;11.82;;;5.35;;
13801;SDS011;6972;51.518;6.918;2023-08-30T08:24:57;10.35;;;5.53;;
13801;SDS011;6972;51.518;6.918;2023-08-30T08:27:26;8.25;;;4.93;;
13801;SDS011;6972;51.518;6.918;2023-08-30T08:29:52;7.65;;;4.53;;
13801;SDS011;6972;51.518;6.918;2023-08-30T08:32:18;8.88;;;5.13;;
13801;SDS011;6972;51.518;6.918;2023-08-30T08:34:45;7.82;;;5.53;;
13801;SDS011;6972;51.518;6.918;2023-08-30T08:37:11;12.90;;;4.75;;
13801;SDS011;6972;51.518;6.918;2023-08-30T08:39:37;9.13;;;4.85;;
13801;SDS011;6972;51.518;6.918;2023-08-30T08:42:03;7.03;;;4.60;;
13801;SDS011;6972;51.518;6.918;2023-08-30T08:44:31;6.90;;;4.63;;
13801;SDS011;6972;51.518;6.918;2023-08-30T08:46:58;7.10;;;4.70;;
13801;SDS011;6972;51.518;6.918;2023-08-30T08:49:24;5.82;;;4.50;;
13801;SDS011;6972;51.518;6.918;2023-08-30T08:51:55;12.00;;;4.07;;
13801;SDS011;6972;51.518;6.918;2023-08-30T08:54:22;9.32;;;4.30;;
13801;SDS011;6972;51.518;6.918;2023-08-30T08:56:48;8.10;;;3.97;;
13801;SDS011;6972;51.518;6.918;2023-08-30T08:59:14;6.93;;;3.83;;
13801;SDS011;6972;51.518;6.918;2023-08-30T09:01:40;7.43;;;4.00;;
13801;SDS011;6972;51.518;6.918;2023-08-30T09:04:06;6.60;;;3.90;;
13801;SDS011;6972;51.518;6.918;2023-08-30T09:06:33;6.78;;;3.92;;
13801;SDS011;6972;51.518;6.918;2023-08-30T09:09:00;6.20;;;4.15;;
13801;SDS011;6972;51.518;6.918;2023-08-30T09:11:26;6.38;;;4.00;;
13801;SDS011;6972;51.518;6.918;2023-08-30T09:13:52;6.70;;;4.28;;
13801;SDS011;6972;51.518;6.918;2023-08-30T09:16:18;7.50;;;4.20;;
13801;SDS011;6972;51.518;6.918;2023-08-30T09:18:44;9.63;;;4.07;;
13801;SDS011;6972;51.518;6.918;2023-08-30T09:21:10;8.43;;;3.70;;
13801;SDS011;6972;51.518;6.918;2023-08-30T09:23:37;7.72;;;3.78;;
13801;SDS011;6972;51.518;6.918;2023-08-30T09:26:03;7.22;;;4.00;;
13801;SDS011;6972;51.518;6.918;2023-08-30T09:28:30;6.50;;;3.92;;
13801;SDS011;6972;51.518;6.918;2023-08-30T09:30:57;7.38;;;4.05;;
13801;SDS011;6972;51.518;6.918;2023-08-30T09:33:31;9.02;;;4.30;;
13801;SDS011;6972;51.518;6.918;2023-08-30T09:35:58;8.27;;;4.25;;
13801;SDS011;6972;51.518;6.918;2023-08-30T09:38:24;6.45;;;3.67;;
13801;SDS011;6972;51.518;6.918;2023-08-30T09:40:51;4.65;;;4.05;;
13801;SDS011;6972;51.518;6.918;2023-08-30T09:43:18;5.78;;;4.10;;
13801;SDS011;6972;51.518;6.918;2023-08-30T09:45:46;8.57;;;4.30;;
13801;SDS011;6972;51.518;6.918;2023-08-30T09:48:13;7.80;;;5.07;;
13801;SDS011;6972;51.518;6.918;2023-08-30T09:50:39;7.13;;;5.05;;
13801;SDS011;6972;51.518;6.918;2023-08-30T09:53:08;7.13;;;4.90;;
13801;SDS011;6972;51.518;6.918;2023-08-30T09:55:34;6.47;;;4.65;;
13801;SDS011;6972;51.518;6.918;2023-08-30T09:58:04;6.47;;;4.68;;
13801;SDS011;6972;51.518;6.918;2023-08-30T10:00:33;6.43;;;4.32;;
13801;SDS011;6972;51.518;6.918;2023-08-30T10:02:59;6.90;;;5.00;;
13801;SDS011;6972;51.518;6.918;2023-08-30T10:05:26;6.95;;;4.40;;
13801;SDS011;6972;51.518;6.918;2023-08-30T10:07:53;6.85;;;4.80;;
13801;SDS011;6972;51.518;6.918;2023-08-30T10:10:27;7.57;;;5.03;;
13801;SDS011;6972;51.518;6.918;2023-08-30T10:12:55;6.85;;;4.82;;
13801;SDS011;6972;51.518;6.918;2023-08-30T10:15:21;7.10;;;5.30;;
13801;SDS011;6972;51.518;6.918;2023-08-30T10:17:49;8.45;;;5.32;;
13801;SDS011;6972;51.518;6.918;2023-08-30T10:20:17;8.88;;;5.43;;
13801;SDS011;6972;51.518;6.918;2023-08-30T10:22:44;7.80;;;5.32;;
13801;SDS011;6972;51.518;6.918;2023-08-30T10:25:11;5.80;;;4.82;;
13801;SDS011;6972;51.518;6.918;2023-08-30T10:27:43;9.15;;;6.03;;
13801;SDS011;6972;51.518;6.918;2023-08-30T10:30:09;6.45;;;5.72;;
13801;SDS011;6972;51.518;6.918;2023-08-30T10:32:40;7.88;;;5.55;;
13801;SDS011;6972;51.518;6.918;2023-08-30T10:35:06;6.75;;;5.07;;
13801;SDS011;6972;51.518;6.918;2023-08-30T10:37:33;8.18;;;5.93;;
13801;SDS011;6972;51.518;6.918;2023-08-30T10:39:59;7.13;;;5.75;;
13801;SDS011;6972;51.518;6.918;2023-08-30T10:42:28;10.05;;;6.25;;
13801;SDS011;6972;51.518;6.918;2023-08-30T10:47:30;5.93;;;5.28;;
13801;SDS011;6972;51.518;6.918;2023-08-30T10:49:57;9.45;;;5.47;;
13801;SDS011;6972;51.518;6.918;2023-08-30T10:52:24;8.57;;;5.85;;
13801;SDS011;6972;51.518;6.918;2023-08-30T10:54:50;7.60;;;6.25;;
13801;SDS011;6972;51.518;6.918;2023-08-30T10:57:35;10.07;;;6.35;;
13801;SDS011;6972;51.518;6.918;2023-08-30T11:00:12;9.82;;;5.68;;
13801;SDS011;6972;51.518;6.918;2023-08-30T11:02:46;8.05;;;5.95;;
13801;SDS011;6972;51.518;6.918;2023-08-30T11:05:12;8.13;;;5.95;;
13801;SDS011;6972;51.518;6.918;2023-08-30T11:07:38;9.32;;;6.25;;
13801;SDS011;6972;51.518;6.918;2023-08-30T11:10:05;9.40;;;6.72;;
13801;SDS011;6972;51.518;6.918;2023-08-30T11:12:31;9.88;;;6.55;;
13801;SDS011;6972;51.518;6.918;2023-08-30T11:14:57;8.32;;;6.25;;
13801;SDS011;6972;51.518;6.918;2023-08-30T11:17:25;11.45;;;6.13;;
13801;SDS011;6972;51.518;6.918;2023-08-30T11:19:51;9.77;;;6.68;;
13801;SDS011;6972;51.518;6.918;2023-08-30T11:22:23;8.95;;;6.55;;
13801;SDS011;6972;51.518;6.918;2023-08-30T11:24:49;8.07;;;6.40;;
13801;SDS011;6972;51.518;6.918;2023-08-30T11:27:17;9.13;;;6.53;;
13801;SDS011;6972;51.518;6.918;2023-08-30T11:29:43;10.48;;;6.40;;
13801;SDS011;6972;51.518;6.918;2023-08-30T11:32:12;9.40;;;6.03;;
13801;SDS011;6972;51.518;6.918;2023-08-30T11:34:38;8.05;;;6.45;;
13801;SDS011;6972;51.518;6.918;2023-08-30T11:37:04;8.50;;;5.68;;
13801;SDS011;6972;51.518;6.918;2023-08-30T11:39:30;8.30;;;5.32;;
13801;SDS011;6972;51.518;6.918;2023-08-30T11:41:56;7.68;;;5.90;;
13801;SDS011;6972;51.518;6.918;2023-08-30T11:44:23;8.50;;;4.78;;
13801;SDS011;6972;51.518;6.918;2023-08-30T11:46:57;5.63;;;4.65;;
13801;SDS011;6972;51.518;6.918;2023-08-30T11:49:23;7.00;;;5.10;;
13801;SDS011;6972;51.518;6.918;2023-08-30T11:51:50;6.97;;;5.00;;
13801;SDS011;6972;51.518;6.918;2023-08-30T11:54:17;5.53;;;4.20;;
13801;SDS011;6972;51.518;6.918;2023-08-30T11:56:46;5.50;;;4.40;;
13801;SDS011;6972;51.518;6.918;2023-08-30T11:59:18;7.38;;;4.57;;
13801;SDS011;6972;51.518;6.918;2023-08-30T12:01:44;6.93;;;4.10;;
13801;SDS011;6972;51.518;6.918;2023-08-30T12:04:10;8.13;;;3.90;;
13801;SDS011;6972;51.518;6.918;2023-08-30T12:06:37;4.43;;;3.60;;
13801;SDS011;6972;51.518;6.918;2023-08-30T12:09:03;5.43;;;3.45;;
13801;SDS011;6972;51.518;6.918;2023-08-30T12:11:31;5.07;;;3.30;;
13801;SDS011;6972;51.518;6.918;2023-08-30T12:14:03;6.75;;;3.65;;
13801;SDS011;6972;51.518;6.918;2023-08-30T12:16:30;6.80;;;3.95;;
13801;SDS011;6972;51.518;6.918;2023-08-30T12:18:56;4.03;;;2.97;;
13801;SDS011;6972;51.518;6.918;2023-08-30T12:21:38;3.97;;;3.30;;
13801;SDS011;6972;51.518;6.918;2023-08-30T12:24:05;3.83;;;2.88;;
13801;SDS011;6972;51.518;6.918;2023-08-30T12:26:31;4.30;;;3.08;;
13801;SDS011;6972;51.518;6.918;2023-08-30T12:29:02;4.68;;;3.05;;
13801;SDS011;6972;51.518;6.918;2023-08-30T12:31:28;4.82;;;3.00;;
13801;SDS011;6972;51.518;6.918;2023-08-30T12:33:54;3.58;;;3.10;;
13801;SDS011;6972;51.518;6.918;2023-08-30T12:36:20;4.80;;;3.10;;
13801;SDS011;6972;51.518;6.918;2023-08-30T12:38:46;3.45;;;3.00;;
13801;SDS011;6972;51.518;6.918;2023-08-30T12:41:12;4.15;;;3.55;;
13801;SDS011;6972;51.518;6.918;2023-08-30T12:43:38;4.35;;;3.20;;
13801;SDS011;6972;51.518;6.918;2023-08-30T12:46:04;6.72;;;3.53;;
13801;SDS011;6972;51.518;6.918;2023-08-30T12:48:32;4.97;;;3.53;;
13801;SDS011;6972;51.518;6.918;2023-08-30T12:50:58;4.85;;;3.85;;
13801;SDS011;6972;51.518;6.918;2023-08-30T12:53:24;3.40;;;3.10;;
13801;SDS011;6972;51.518;6.918;2023-08-30T12:55:50;8.23;;;3.95;;
13801;SDS011;6972;51.518;6.918;2023-08-30T12:58:16;4.88;;;3.97;;
13801;SDS011;6972;51.518;6.918;2023-08-30T13:00:42;5.97;;;3.78;;
13801;SDS011;6972;51.518;6.918;2023-08-30T13:03:09;5.65;;;4.65;;
13801;SDS011;6972;51.518;6.918;2023-08-30T13:05:35;6.82;;;4.30;;
13801;SDS011;6972;51.518;6.918;2023-08-30T13:08:01;5.72;;;3.80;;
13801;SDS011;6972;51.518;6.918;2023-08-30T13:10:27;6.32;;;3.83;;
13801;SDS011;6972;51.518;6.918;2023-08-30T13:12:53;6.65;;;4.38;;
13801;SDS011;6972;51.518;6.918;2023-08-30T13:15:20;4.97;;;4.22;;
13801;SDS011;6972;51.518;6.918;2023-08-30T13:17:46;6.20;;;4.47;;
13801;SDS011;6972;51.518;6.918;2023-08-30T13:20:12;5.38;;;3.92;;
13801;SDS011;6972;51.518;6.918;2023-08-30T13:22:38;5.05;;;3.80;;
13801;SDS011;6972;51.518;6.918;2023-08-30T13:25:05;4.88;;;4.13;;
13801;SDS011;6972;51.518;6.918;2023-08-30T13:27:31;4.85;;;4.32;;
13801;SDS011;6972;51.518;6.918;2023-08-30T13:29:57;6.97;;;4.15;;
13801;SDS011;6972;51.518;6.918;2023-08-30T13:32:23;6.82;;;4.72;;
13801;SDS011;6972;51.518;6.918;2023-08-30T13:34:50;5.13;;;4.47;;
13801;SDS011;6972;51.518;6.918;2023-08-30T13:37:16;5.53;;;4.63;;
13801;SDS011;6972;51.518;6.918;2023-08-30T13:39:42;6.72;;;4.15;;
13801;SDS011;6972;51.518;6.918;2023-08-30T13:42:11;5.38;;;4.13;;
13801;SDS011;6972;51.518;6.918;2023-08-30T13:44:38;5.03;;;4.20;;
13801;SDS011;6972;51.518;6.918;2023-08-30T13:47:04;4.25;;;3.60;;
13801;SDS011;6972;51.518;6.918;2023-08-30T13:49:30;5.03;;;4.25;;
13801;SDS011;6972;51.518;6.918;2023-08-30T13:51:57;5.55;;;4.40;;
13801;SDS011;6972;51.518;6.918;2023-08-30T13:54:23;4.70;;;3.60;;
13801;SDS011;6972;51.518;6.918;2023-08-30T13:56:49;5.55;;;4.25;;
13801;SDS011;6972;51.518;6.918;2023-08-30T13:59:15;4.22;;;3.83;;
13801;SDS011;6972;51.518;6.918;2023-08-30T14:01:41;5.40;;;3.80;;
13801;SDS011;6972;51.518;6.918;2023-08-30T14:04:08;7.20;;;3.92;;
13801;SDS011;6972;51.518;6.918;2023-08-30T14:06:34;5.18;;;4.05;;
13801;SDS011;6972;51.518;6.918;2023-08-30T14:09:00;5.72;;;4.30;;
13801;SDS011;6972;51.518;6.918;2023-08-30T14:11:26;7.25;;;4.03;;
13801;SDS011;6972;51.518;6.918;2023-08-30T14:13:52;4.78;;;4.07;;
13801;SDS011;6972;51.518;6.918;2023-08-30T14:16:18;4.95;;;3.72;;
13801;SDS011;6972;51.518;6.918;2023-08-30T14:18:47;7.78;;;4.28;;
13801;SDS011;6972;51.518;6.918;2023-08-30T14:21:13;4.65;;;4.05;;
13801;SDS011;6972;51.518;6.918;2023-08-30T14:23:39;5.18;;;3.80;;
13801;SDS011;6972;51.518;6.918;2023-08-30T14:26:06;5.63;;;3.72;;
13801;SDS011;6972;51.518;6.918;2023-08-30T14:28:37;6.60;;;4.20;;
13801;SDS011;6972;51.518;6.918;2023-08-30T14:31:06;5.88;;;4.03;;
13801;SDS011;6972;51.518;6.918;2023-08-30T14:33:32;4.85;;;3.72;;
13801;SDS011;6972;51.518;6.918;2023-08-30T14:35:59;5.57;;;3.97;;
13801;SDS011;6972;51.518;6.918;2023-08-30T14:38:27;4.57;;;3.58;;
13801;SDS011;6972;51.518;6.918;2023-08-30T14:40:56;6.57;;;3.75;;
13801;SDS011;6972;51.518;6.918;2023-08-30T14:43:23;7.78;;;3.35;;
13801;SDS011;6972;51.518;6.918;2023-08-30T14:45:49;4.70;;;2.90;;
13801;SDS011;6972;51.518;6.918;2023-08-30T14:48:15;4.40;;;3.20;;
13801;SDS011;6972;51.518;6.918;2023-08-30T14:50:49;3.30;;;3.00;;
13801;SDS011;6972;51.518;6.918;2023-08-30T14:53:15;5.50;;;3.60;;
13801;SDS011;6972;51.518;6.918;2023-08-30T14:55:44;4.00;;;2.83;;